Time;durP1;ratioP1;P1;durP2;ratioP2;P2;SDS_P1;SDS_P2;PMS_P1;PMS_P2;Temp;Humidity;BMP_temperature;BMP_pressure;BME280_temperature;BME280_humidity;BME280_pressure;Samples;Min_cycle;Max_cycle;Signal;HPM_P1;HPM_P2
2022/01/31 00:02:25;;;;;;;;;;;1.50;48.00;;;;;;5011787;28;19927;-76
2022/01/31 00:04:51;;;;;;;;;;;1.50;48.00;;;;;;5013257;28;20305;-79
2022/01/31 00:07:17;;;;;;;;;;;1.50;48.20;;;;;;5009266;28;19928;-80
2022/01/31 00:09:45;;;;;;;;;;;1.50;47.70;;;;;;5020817;28;20043;-76
2022/01/31 00:12:14;;;;;;;;;;;1.40;48.00;;;;;;5021990;28;19917;-80
2022/01/31 00:17:06;;;;;;;;;;;1.40;47.60;;;;;;5016115;28;19961;-80
2022/01/31 00:19:34;;;;;;;;;;;1.40;48.00;;;;;;5017234;28;19929;-77
2022/01/31 00:22:00;;;;;;;;;;;1.40;48.00;;;;;;5015704;28;19977;-80
2022/01/31 00:24:26;;;;;;;;;;;1.40;48.10;;;;;;5017146;28;20506;-80
2022/01/31 00:26:52;;;;;;;;;;;1.30;48.30;;;;;;5017751;28;19928;-80
2022/01/31 00:29:19;;;;;;;;;;;1.30;48.60;;;;;;5014522;28;19922;-77
2022/01/31 00:31:45;;;;;;;;;;;1.30;47.90;;;;;;5017009;28;19925;-77
2022/01/31 00:34:11;;;;;;;;;;;1.20;47.80;;;;;;4999934;28;19956;-77
2022/01/31 00:36:37;;;;;;;;;;;1.20;48.40;;;;;;5020366;28;19957;-77
2022/01/31 00:39:04;;;;;;;;;;;1.20;48.00;;;;;;5031487;28;19975;-80
2022/01/31 00:41:30;;;;;;;;;;;1.20;48.50;;;;;;5015657;28;19921;-77
2022/01/31 00:44:01;;;;;;;;;;;1.10;48.70;;;;;;5023102;28;19967;-79
2022/01/31 00:46:36;;;;;;;;;;;1.10;48.80;;;;;;5033682;28;19921;-80
2022/01/31 00:49:02;;;;;;;;;;;1.10;48.30;;;;;;5033963;28;19921;-77
2022/01/31 00:51:28;;;;;;;;;;;1.10;48.30;;;;;;5031468;28;19917;-76
2022/01/31 00:53:55;;;;;;;;;;;1.10;48.80;;;;;;5024526;28;19929;-78
2022/01/31 00:56:21;;;;;;;;;;;1.10;48.80;;;;;;5026113;28;19927;-79
2022/01/31 00:58:47;;;;;;;;;;;1.10;48.80;;;;;;5022365;28;19921;-77
2022/01/31 01:01:13;;;;;;;;;;;1.10;48.90;;;;;;5025783;28;20472;-81
2022/01/31 01:03:39;;;;;;;;;;;1.10;48.30;;;;;;5032082;28;19928;-76
2022/01/31 01:06:05;;;;;;;;;;;1.00;48.40;;;;;;5033014;28;20266;-81
2022/01/31 01:08:31;;;;;;;;;;;1.10;48.90;;;;;;5033511;28;19921;-76
2022/01/31 01:10:57;;;;;;;;;;;1.10;48.90;;;;;;5021612;28;19921;-80
2022/01/31 01:13:23;;;;;;;;;;;1.10;49.00;;;;;;5019453;28;19972;-76
2022/01/31 01:15:49;;;;;;;;;;;1.10;48.90;;;;;;5014798;28;19925;-77
2022/01/31 01:18:15;;;;;;;;;;;1.00;48.90;;;;;;5025645;28;19917;-76
2022/01/31 01:20:42;;;;;;;;;;;1.00;49.30;;;;;;5023068;28;19921;-81
2022/01/31 01:23:09;;;;;;;;;;;0.90;49.30;;;;;;5025108;28;20358;-77
2022/01/31 01:25:35;;;;;;;;;;;0.90;48.70;;;;;;5022304;28;19921;-77
2022/01/31 01:28:01;;;;;;;;;;;0.90;49.30;;;;;;5023643;28;20385;-77
2022/01/31 01:30:27;;;;;;;;;;;0.80;49.30;;;;;;5022764;28;19918;-77
2022/01/31 01:35:25;;;;;;;;;;;0.80;48.90;;;;;;5024150;28;20378;-76
2022/01/31 01:37:51;;;;;;;;;;;0.70;48.90;;;;;;5028248;28;20012;-76
2022/01/31 01:40:17;;;;;;;;;;;0.70;48.90;;;;;;5038614;28;19921;-81
2022/01/31 01:42:43;;;;;;;;;;;0.70;48.90;;;;;;5030326;28;19971;-77
2022/01/31 01:45:09;;;;;;;;;;;0.70;49.30;;;;;;5022981;28;19956;-76
2022/01/31 01:47:36;;;;;;;;;;;0.70;49.50;;;;;;5024738;28;19928;-80
2022/01/31 01:50:03;;;;;;;;;;;0.70;49.50;;;;;;5032674;28;19960;-78
2022/01/31 01:52:29;;;;;;;;;;;0.60;49.50;;;;;;5005406;28;19929;-77
2022/01/31 01:54:55;;;;;;;;;;;0.70;49.80;;;;;;5014114;28;20424;-77
2022/01/31 01:57:23;;;;;;;;;;;0.60;49.10;;;;;;4997771;28;19964;-76
2022/01/31 01:59:54;;;;;;;;;;;0.60;49.60;;;;;;5006860;28;19913;-76
2022/01/31 02:02:21;;;;;;;;;;;0.60;49.20;;;;;;5021273;28;20333;-80
2022/01/31 02:04:47;;;;;;;;;;;0.50;49.60;;;;;;5014803;28;19921;-80
2022/01/31 02:07:13;;;;;;;;;;;0.50;50.40;;;;;;5013621;28;19921;-76
2022/01/31 02:09:44;;;;;;;;;;;0.40;50.40;;;;;;5013783;28;19968;-76
2022/01/31 02:12:11;;;;;;;;;;;0.40;50.20;;;;;;5024866;28;20373;-80
2022/01/31 02:14:38;;;;;;;;;;;0.40;50.40;;;;;;5014432;28;20000;-80
2022/01/31 02:17:04;;;;;;;;;;;0.30;50.40;;;;;;5032349;28;20423;-77
2022/01/31 02:19:30;;;;;;;;;;;0.40;50.30;;;;;;5030691;28;19921;-76
2022/01/31 02:21:56;;;;;;;;;;;0.40;50.50;;;;;;5027450;28;19929;-77
2022/01/31 02:24:22;;;;;;;;;;;0.40;50.00;;;;;;5023681;28;19999;-80
2022/01/31 02:26:48;;;;;;;;;;;0.40;50.50;;;;;;5031853;28;19909;-80
2022/01/31 02:29:15;;;;;;;;;;;0.40;49.90;;;;;;5030105;28;19921;-77
2022/01/31 02:31:59;;;;;;;;;;;0.30;50.50;;;;;;5033509;28;19920;-80
2022/01/31 02:34:25;;;;;;;;;;;0.40;50.40;;;;;;5034989;28;19917;-76
2022/01/31 02:36:52;;;;;;;;;;;0.40;50.70;;;;;;5034427;28;19921;-78
2022/01/31 02:39:18;;;;;;;;;;;0.40;50.20;;;;;;5033264;28;19967;-80
2022/01/31 02:41:45;;;;;;;;;;;0.30;50.10;;;;;;5034323;28;19983;-79
2022/01/31 02:44:16;;;;;;;;;;;0.30;50.80;;;;;;5033085;28;20004;-80
2022/01/31 02:46:49;;;;;;;;;;;0.20;51.00;;;;;;5033255;28;19927;-80
2022/01/31 02:49:17;;;;;;;;;;;0.30;51.00;;;;;;5033281;28;19913;-80
2022/01/31 02:51:48;;;;;;;;;;;0.30;50.80;;;;;;5033147;28;19921;-77
2022/01/31 02:54:14;;;;;;;;;;;0.40;50.60;;;;;;5033092;28;19917;-76
2022/01/31 02:56:40;;;;;;;;;;;0.40;50.20;;;;;;5032903;28;19921;-77
2022/01/31 02:59:07;;;;;;;;;;;0.40;50.10;;;;;;5034517;28;20412;-77
2022/01/31 03:01:52;;;;;;;;;;;0.50;50.50;;;;;;5032982;28;20373;-80
2022/01/31 03:04:18;;;;;;;;;;;0.60;50.40;;;;;;5028727;28;20421;-76
2022/01/31 03:06:49;;;;;;;;;;;0.60;50.50;;;;;;5029546;28;20012;-79
2022/01/31 03:09:33;;;;;;;;;;;0.60;50.50;;;;;;5013155;28;19917;-79
2022/01/31 03:12:00;;;;;;;;;;;0.70;50.40;;;;;;5029366;28;20652;-80
2022/01/31 03:14:26;;;;;;;;;;;0.70;50.40;;;;;;4996730;28;19917;-76
2022/01/31 03:16:52;;;;;;;;;;;0.70;50.50;;;;;;5012955;28;19952;-80
2022/01/31 03:19:19;;;;;;;;;;;0.70;50.50;;;;;;5016948;28;19967;-77
2022/01/31 03:21:46;;;;;;;;;;;0.70;50.50;;;;;;5032644;28;19921;-80
2022/01/31 03:24:12;;;;;;;;;;;0.70;50.60;;;;;;4997265;28;19921;-77
2022/01/31 03:26:39;;;;;;;;;;;0.70;50.60;;;;;;5015558;28;19917;-80
2022/01/31 03:29:06;;;;;;;;;;;0.60;50.90;;;;;;5014527;28;19921;-80
2022/01/31 03:31:32;;;;;;;;;;;0.60;50.70;;;;;;5012934;28;19943;-76
2022/01/31 03:33:59;;;;;;;;;;;0.60;50.60;;;;;;5007162;28;20004;-80
2022/01/31 03:36:25;;;;;;;;;;;0.60;50.90;;;;;;5015560;28;20000;-80
2022/01/31 03:38:51;;;;;;;;;;;0.60;50.60;;;;;;5030193;28;19960;-77
2022/01/31 03:41:20;;;;;;;;;;;0.60;50.90;;;;;;5015556;28;19944;-77
2022/01/31 03:43:46;;;;;;;;;;;0.70;50.90;;;;;;5029910;28;19928;-80
2022/01/31 03:46:13;;;;;;;;;;;0.60;50.50;;;;;;5013888;28;19925;-77
2022/01/31 03:48:40;;;;;;;;;;;0.60;50.40;;;;;;5008863;28;20393;-76
2022/01/31 03:51:07;;;;;;;;;;;0.60;50.90;;;;;;5012342;28;19917;-76
2022/01/31 03:53:33;;;;;;;;;;;0.70;50.80;;;;;;5013095;28;19918;-76
2022/01/31 03:55:59;;;;;;;;;;;0.60;50.30;;;;;;5012371;28;19960;-77
2022/01/31 03:58:25;;;;;;;;;;;0.60;50.40;;;;;;5012237;28;19964;-80
2022/01/31 04:00:51;;;;;;;;;;;0.70;50.90;;;;;;5028339;28;19921;-80
2022/01/31 04:03:18;;;;;;;;;;;0.70;51.00;;;;;;5013130;28;20009;-80
2022/01/31 04:05:44;;;;;;;;;;;0.70;50.40;;;;;;5030453;28;19917;-77
2022/01/31 04:08:12;;;;;;;;;;;0.70;51.00;;;;;;5029225;28;20358;-76
2022/01/31 04:10:38;;;;;;;;;;;0.70;50.50;;;;;;5013414;28;19922;-80
2022/01/31 04:13:06;;;;;;;;;;;0.60;50.50;;;;;;4992212;28;19921;-77
2022/01/31 04:15:50;;;;;;;;;;;0.70;51.10;;;;;;5019021;28;20012;-77
2022/01/31 04:18:16;;;;;;;;;;;0.70;51.10;;;;;;5012089;28;19929;-80
2022/01/31 04:20:43;;;;;;;;;;;0.70;51.20;;;;;;5022477;28;19913;-77
2022/01/31 04:23:12;;;;;;;;;;;0.70;51.20;;;;;;5012742;28;20551;-76
2022/01/31 04:25:45;;;;;;;;;;;0.70;50.60;;;;;;5027533;28;19972;-80
2022/01/31 04:28:33;;;;;;;;;;;0.80;51.00;;;;;;5012185;28;20301;-80
2022/01/31 04:33:45;;;;;;;;;;;0.90;51.00;;;;;;5012059;28;19928;-80
2022/01/31 04:36:14;;;;;;;;;;;0.90;51.10;;;;;;5017422;28;20278;-80
2022/01/31 04:38:59;;;;;;;;;;;1.00;50.50;;;;;;5024057;28;19917;-77
2022/01/31 04:41:25;;;;;;;;;;;1.00;51.00;;;;;;5012978;28;19922;-76
2022/01/31 04:43:53;;;;;;;;;;;1.00;51.20;;;;;;5011598;28;20560;-81
2022/01/31 04:46:19;;;;;;;;;;;1.00;51.10;;;;;;5011645;28;19921;-80
2022/01/31 04:48:45;;;;;;;;;;;1.00;50.60;;;;;;5002514;28;20363;-77
2022/01/31 04:51:13;;;;;;;;;;;1.00;50.50;;;;;;5022560;28;19917;-77
2022/01/31 04:53:39;;;;;;;;;;;1.10;51.20;;;;;;5025768;28;19917;-76
2022/01/31 04:56:05;;;;;;;;;;;1.00;51.00;;;;;;5011006;28;20263;-80
2022/01/31 04:58:32;;;;;;;;;;;1.00;51.50;;;;;;5022317;28;19967;-76
2022/01/31 05:00:59;;;;;;;;;;;0.90;51.80;;;;;;5020431;28;19921;-81
2022/01/31 05:03:25;;;;;;;;;;;0.80;51.70;;;;;;5016235;28;19952;-80
2022/01/31 05:05:52;;;;;;;;;;;0.80;51.50;;;;;;5025533;28;19967;-80
2022/01/31 05:08:23;;;;;;;;;;;0.80;51.60;;;;;;5022264;28;19928;-77
2022/01/31 05:10:50;;;;;;;;;;;0.80;51.50;;;;;;5026506;28;20400;-76
2022/01/31 05:13:16;;;;;;;;;;;0.80;51.30;;;;;;5021487;28;19928;-80
2022/01/31 05:15:44;;;;;;;;;;;0.80;51.70;;;;;;5014757;28;19978;-80
2022/01/31 05:18:10;;;;;;;;;;;0.80;51.60;;;;;;5023768;28;20348;-76
2022/01/31 05:20:37;;;;;;;;;;;0.80;51.60;;;;;;5005202;28;19996;-80
2022/01/31 05:23:22;;;;;;;;;;;0.90;51.70;;;;;;5021452;28;20354;-77
2022/01/31 05:25:48;;;;;;;;;;;0.80;51.50;;;;;;5028915;28;19921;-79
2022/01/31 05:28:14;;;;;;;;;;;0.90;51.80;;;;;;5018902;28;19921;-80
2022/01/31 05:30:40;;;;;;;;;;;0.80;51.50;;;;;;5014596;28;20267;-77
2022/01/31 05:33:06;;;;;;;;;;;0.90;51.20;;;;;;5014593;28;19957;-80
2022/01/31 05:35:32;;;;;;;;;;;0.90;51.80;;;;;;5029875;28;19918;-77
2022/01/31 05:37:59;;;;;;;;;;;0.90;51.30;;;;;;5029223;28;20286;-80
2022/01/31 05:40:25;;;;;;;;;;;0.90;51.20;;;;;;5015593;28;19921;-79
2022/01/31 05:42:51;;;;;;;;;;;0.90;51.20;;;;;;5014608;28;20649;-77
2022/01/31 05:45:17;;;;;;;;;;;0.90;51.20;;;;;;5043248;28;20350;-76
2022/01/31 05:47:43;;;;;;;;;;;0.90;51.30;;;;;;5019071;28;19917;-77
2022/01/31 05:50:09;;;;;;;;;;;0.90;51.30;;;;;;5027582;28;19925;-77
2022/01/31 05:52:36;;;;;;;;;;;0.90;51.70;;;;;;5031456;28;19921;-80
2022/01/31 05:55:02;;;;;;;;;;;0.90;51.30;;;;;;5018341;28;20294;-80
2022/01/31 05:57:28;;;;;;;;;;;0.80;52.00;;;;;;5014307;28;19921;-77
2022/01/31 05:59:54;;;;;;;;;;;0.70;52.30;;;;;;5014648;28;19928;-80
2022/01/31 06:02:20;;;;;;;;;;;0.60;52.60;;;;;;5027828;28;19963;-76
2022/01/31 06:04:46;;;;;;;;;;;0.60;52.10;;;;;;5016832;28;20398;-80
2022/01/31 06:07:12;;;;;;;;;;;0.50;52.30;;;;;;5027663;28;19928;-80
2022/01/31 06:09:39;;;;;;;;;;;0.50;52.70;;;;;;5018989;28;19922;-76
2022/01/31 06:12:05;;;;;;;;;;;0.60;52.50;;;;;;5013513;28;19913;-76
2022/01/31 06:14:31;;;;;;;;;;;0.60;52.20;;;;;;5014365;28;19918;-80
2022/01/31 06:16:58;;;;;;;;;;;0.60;51.70;;;;;;5026492;28;19936;-76
2022/01/31 06:19:24;;;;;;;;;;;0.50;51.70;;;;;;5031240;28;19967;-77
2022/01/31 06:21:50;;;;;;;;;;;0.60;51.70;;;;;;5030020;28;20428;-80
2022/01/31 06:24:17;;;;;;;;;;;0.50;52.20;;;;;;5018339;28;20298;-76
2022/01/31 06:26:43;;;;;;;;;;;0.50;52.20;;;;;;5028274;28;19913;-76
2022/01/31 06:29:09;;;;;;;;;;;0.50;51.80;;;;;;5027610;28;20020;-76
2022/01/31 06:31:35;;;;;;;;;;;0.60;51.70;;;;;;5013681;28;20436;-80
2022/01/31 06:34:02;;;;;;;;;;;0.60;51.70;;;;;;5013724;28;20345;-80
2022/01/31 06:36:29;;;;;;;;;;;0.60;52.20;;;;;;5028670;28;20374;-77
2022/01/31 06:38:55;;;;;;;;;;;0.60;52.20;;;;;;5013836;28;19914;-76
2022/01/31 06:41:23;;;;;;;;;;;0.60;51.70;;;;;;5014735;28;19922;-80
2022/01/31 06:43:49;;;;;;;;;;;0.70;52.20;;;;;;5014271;28;20375;-80
2022/01/31 06:46:15;;;;;;;;;;;0.70;52.30;;;;;;5026546;28;19925;-80
2022/01/31 06:48:41;;;;;;;;;;;0.70;51.50;;;;;;5026021;28;19925;-80
2022/01/31 06:51:07;;;;;;;;;;;0.80;51.50;;;;;;5007870;28;19948;-80
2022/01/31 06:53:34;;;;;;;;;;;0.80;51.90;;;;;;5026281;28;19913;-76
2022/01/31 06:56:01;;;;;;;;;;;0.80;51.90;;;;;;5011150;28;19921;-81
2022/01/31 06:58:27;;;;;;;;;;;0.90;51.90;;;;;;5016069;28;19968;-80
2022/01/31 07:00:54;;;;;;;;;;;0.90;52.00;;;;;;5014476;28;19921;-76
2022/01/31 07:03:21;;;;;;;;;;;0.80;52.10;;;;;;5014363;28;19921;-79
2022/01/31 07:05:47;;;;;;;;;;;0.90;52.10;;;;;;5027250;28;19917;-80
2022/01/31 07:08:15;;;;;;;;;;;0.90;52.10;;;;;;5015375;28;19922;-77
2022/01/31 07:10:42;;;;;;;;;;;1.00;52.00;;;;;;5013044;28;20367;-80
2022/01/31 07:13:23;;;;;;;;;;;1.00;52.00;;;;;;5013925;28;19964;-77
2022/01/31 07:15:49;;;;;;;;;;;1.00;52.00;;;;;;5027825;28;19921;-80
2022/01/31 07:18:15;;;;;;;;;;;1.10;51.60;;;;;;5025677;28;20419;-77
2022/01/31 07:20:43;;;;;;;;;;;1.10;51.60;;;;;;5011960;28;20367;-80
2022/01/31 07:23:16;;;;;;;;;;;1.20;51.70;;;;;;5028848;28;20282;-77
2022/01/31 07:25:43;;;;;;;;;;;1.20;52.10;;;;;;5011889;28;19921;-80
2022/01/31 07:28:11;;;;;;;;;;;1.20;52.10;;;;;;4994684;28;20032;-79
2022/01/31 07:30:39;;;;;;;;;;;1.20;52.10;;;;;;5012455;28;20318;-78
2022/01/31 07:33:09;;;;;;;;;;;1.20;52.20;;;;;;5012298;28;19963;-77
2022/01/31 07:35:36;;;;;;;;;;;1.20;52.10;;;;;;5029320;28;20277;-76
2022/01/31 07:38:02;;;;;;;;;;;1.20;52.20;;;;;;5012829;28;19928;-80
2022/01/31 07:40:29;;;;;;;;;;;1.30;52.30;;;;;;5012767;28;19918;-80
2022/01/31 07:42:55;;;;;;;;;;;1.30;52.20;;;;;;4994967;28;20420;-80
2022/01/31 07:45:21;;;;;;;;;;;1.30;51.80;;;;;;5029659;28;19916;-76
2022/01/31 07:47:48;;;;;;;;;;;1.30;51.80;;;;;;5013981;28;19956;-80
2022/01/31 07:50:14;;;;;;;;;;;1.40;51.70;;;;;;4996693;28;19971;-77
2022/01/31 07:52:41;;;;;;;;;;;1.40;52.60;;;;;;5012383;28;19929;-76
2022/01/31 07:55:10;;;;;;;;;;;1.50;52.50;;;;;;5012615;28;19917;-80
2022/01/31 07:57:38;;;;;;;;;;;1.50;52.60;;;;;;5028661;28;19928;-76
2022/01/31 08:00:05;;;;;;;;;;;1.50;52.80;;;;;;5012160;28;20286;-77
2022/01/31 08:02:31;;;;;;;;;;;1.50;52.80;;;;;;5012538;28;19925;-76
2022/01/31 08:04:57;;;;;;;;;;;1.60;52.80;;;;;;5013055;28;19979;-80
2022/01/31 08:07:23;;;;;;;;;;;1.60;52.20;;;;;;5028531;28;19921;-77
2022/01/31 08:09:49;;;;;;;;;;;1.70;52.10;;;;;;5013369;28;20282;-79
2022/01/31 08:12:16;;;;;;;;;;;1.80;51.80;;;;;;5010676;28;19924;-76
2022/01/31 08:14:43;;;;;;;;;;;1.80;52.10;;;;;;5029023;28;19990;-76
2022/01/31 08:17:10;;;;;;;;;;;1.90;51.50;;;;;;5011458;28;19921;-79
2022/01/31 08:19:36;;;;;;;;;;;2.10;51.50;;;;;;5011843;28;19921;-80
2022/01/31 08:22:02;;;;;;;;;;;2.10;51.50;;;;;;5021046;28;19925;-77
2022/01/31 08:24:28;;;;;;;;;;;2.10;52.00;;;;;;5010983;28;20430;-80
2022/01/31 08:26:54;;;;;;;;;;;2.20;52.00;;;;;;5027538;28;19964;-76
2022/01/31 08:29:25;;;;;;;;;;;2.30;51.50;;;;;;5010586;28;19925;-76
2022/01/31 08:31:53;;;;;;;;;;;2.30;51.50;;;;;;5026667;28;19921;-76
2022/01/31 08:34:24;;;;;;;;;;;2.50;51.80;;;;;;5028245;28;19921;-80
2022/01/31 08:36:51;;;;;;;;;;;2.60;51.60;;;;;;5014233;28;19967;-80
2022/01/31 08:39:20;;;;;;;;;;;2.70;51.50;;;;;;4998181;28;19917;-78
2022/01/31 08:41:50;;;;;;;;;;;2.90;51.40;;;;;;5015979;28;19913;-80
2022/01/31 08:44:18;;;;;;;;;;;3.10;51.30;;;;;;5015670;28;19928;-80
2022/01/31 08:46:46;;;;;;;;;;;3.30;51.00;;;;;;5016662;28;20009;-76
2022/01/31 08:49:14;;;;;;;;;;;3.50;50.80;;;;;;5016768;28;20059;-79
2022/01/31 08:51:41;;;;;;;;;;;3.60;50.70;;;;;;5016406;28;20491;-78
2022/01/31 08:54:09;;;;;;;;;;;3.80;50.60;;;;;;5015342;28;19964;-77
2022/01/31 08:56:40;;;;;;;;;;;4.00;50.40;;;;;;5016928;28;19963;-77
2022/01/31 08:59:27;;;;;;;;;;;4.10;50.30;;;;;;5014984;28;20294;-80
2022/01/31 09:02:04;;;;;;;;;;;4.20;50.30;;;;;;5015007;28;20290;-80
2022/01/31 09:04:41;;;;;;;;;;;4.30;50.40;;;;;;5013783;28;19922;-80
2022/01/31 09:07:07;;;;;;;;;;;4.60;50.40;;;;;;5014975;28;19921;-80
2022/01/31 09:09:33;;;;;;;;;;;5.10;49.90;;;;;;5015176;28;19921;-77
2022/01/31 09:12:02;;;;;;;;;;;5.70;49.10;;;;;;5017205;28;19924;-76
2022/01/31 09:14:28;;;;;;;;;;;6.10;48.50;;;;;;5031972;28;19925;-77
2022/01/31 09:16:54;;;;;;;;;;;6.20;48.50;;;;;;5027314;28;19948;-77
2022/01/31 09:19:20;;;;;;;;;;;6.10;48.70;;;;;;5004046;28;20020;-76
2022/01/31 09:21:46;;;;;;;;;;;6.00;49.30;;;;;;5016093;28;19932;-80
2022/01/31 09:24:12;;;;;;;;;;;5.90;49.70;;;;;;5015966;28;20011;-76
2022/01/31 09:26:38;;;;;;;;;;;5.80;50.10;;;;;;5015302;28;20000;-80
2022/01/31 09:29:04;;;;;;;;;;;5.70;50.20;;;;;;4998178;28;19965;-76
2022/01/31 09:31:30;;;;;;;;;;;5.60;50.40;;;;;;5014636;28;19921;-76
2022/01/31 09:33:56;;;;;;;;;;;5.60;50.50;;;;;;5005737;28;19968;-80
2022/01/31 09:36:22;;;;;;;;;;;5.60;49.90;;;;;;5013711;28;19929;-80
2022/01/31 09:38:49;;;;;;;;;;;5.70;49.80;;;;;;4998590;28;19917;-77
2022/01/31 09:41:21;;;;;;;;;;;5.70;50.20;;;;;;5022400;28;20298;-77
2022/01/31 09:46:46;;;;;;;;;;;5.60;50.10;;;;;;5014156;28;19983;-80
2022/01/31 09:49:14;;;;;;;;;;;5.70;50.20;;;;;;5031159;28;19921;-79
2022/01/31 09:51:40;;;;;;;;;;;5.60;50.10;;;;;;5030109;28;20442;-78
2022/01/31 09:54:06;;;;;;;;;;;5.60;49.60;;;;;;5015299;28;19963;-76
2022/01/31 09:56:37;;;;;;;;;;;5.70;49.50;;;;;;5014776;28;19917;-76
2022/01/31 09:59:05;;;;;;;;;;;5.80;49.80;;;;;;5015828;28;20358;-80
2022/01/31 10:04:43;;;;;;;;;;;5.90;49.60;;;;;;5027664;28;19936;-80
2022/01/31 10:07:10;;;;;;;;;;;6.10;49.40;;;;;;5014177;28;19926;-80
2022/01/31 10:09:37;;;;;;;;;;;6.20;49.10;;;;;;5014948;28;19964;-80
2022/01/31 10:12:09;;;;;;;;;;;6.30;49.00;;;;;;5032327;28;19921;-76
2022/01/31 10:17:41;;;;;;;;;;;6.50;48.80;;;;;;5029331;28;19929;-77
2022/01/31 10:20:08;;;;;;;;;;;6.60;48.70;;;;;;5030666;28;20378;-80
2022/01/31 10:22:38;;;;;;;;;;;6.60;48.50;;;;;;5008447;28;19917;-76
2022/01/31 10:25:23;;;;;;;;;;;6.60;48.50;;;;;;5026841;28;20625;-76
2022/01/31 10:27:52;;;;;;;;;;;6.70;48.50;;;;;;5028029;28;20417;-76
2022/01/31 10:30:37;;;;;;;;;;;6.70;48.60;;;;;;4999171;28;19921;-77
2022/01/31 10:33:07;;;;;;;;;;;6.70;48.50;;;;;;5029200;28;20377;-80
2022/01/31 10:35:33;;;;;;;;;;;6.70;48.50;;;;;;5013077;28;19931;-76
2022/01/31 10:38:08;;;;;;;;;;;6.70;48.50;;;;;;5030735;28;19928;-80
2022/01/31 10:46:32;;;;;;;;;;;6.70;47.70;;;;;;5013619;28;19943;-76
2022/01/31 10:52:02;;;;;;;;;;;6.60;48.20;;;;;;5013466;28;19968;-79
2022/01/31 10:54:39;;;;;;;;;;;6.60;48.20;;;;;;5014421;28;19921;-79
2022/01/31 10:57:23;;;;;;;;;;;6.50;48.20;;;;;;5015024;28;20000;-79
2022/01/31 10:59:51;;;;;;;;;;;6.50;48.30;;;;;;5028031;28;20000;-79
2022/01/31 11:02:37;;;;;;;;;;;6.40;48.10;;;;;;5012799;28;19983;-76
2022/01/31 11:05:04;;;;;;;;;;;6.40;48.10;;;;;;5014203;28;19923;-79
2022/01/31 11:07:30;;;;;;;;;;;6.40;48.10;;;;;;5011742;28;19925;-76
2022/01/31 11:09:56;;;;;;;;;;;6.40;48.30;;;;;;5027183;28;19919;-77
2022/01/31 11:12:23;;;;;;;;;;;6.30;48.30;;;;;;5012840;28;19928;-76
2022/01/31 11:14:50;;;;;;;;;;;6.20;47.70;;;;;;4996479;28;19925;-76
2022/01/31 11:17:17;;;;;;;;;;;6.20;48.30;;;;;;5012474;28;19966;-76
2022/01/31 11:20:06;;;;;;;;;;;6.10;48.40;;;;;;5012867;28;19952;-81
2022/01/31 11:22:37;;;;;;;;;;;6.10;48.30;;;;;;5012509;28;19918;-76
2022/01/31 11:25:05;;;;;;;;;;;6.10;48.40;;;;;;5018102;28;19921;-80
2022/01/31 11:27:31;;;;;;;;;;;6.00;48.20;;;;;;5024703;28;19939;-80
2022/01/31 11:29:58;;;;;;;;;;;6.10;48.40;;;;;;5014576;28;19925;-80
2022/01/31 11:32:25;;;;;;;;;;;6.00;48.20;;;;;;5005088;28;19921;-76
2022/01/31 11:34:52;;;;;;;;;;;6.00;48.20;;;;;;5028843;28;19920;-81
2022/01/31 11:37:20;;;;;;;;;;;6.00;48.20;;;;;;5024778;28;19960;-76
2022/01/31 11:40:09;;;;;;;;;;;6.00;48.20;;;;;;5012532;28;19929;-76
2022/01/31 11:42:36;;;;;;;;;;;5.90;48.30;;;;;;5012148;28;20366;-76
2022/01/31 11:45:23;;;;;;;;;;;5.80;48.40;;;;;;5012445;28;19959;-76
2022/01/31 11:47:50;;;;;;;;;;;5.80;48.50;;;;;;5027248;28;20529;-77
2022/01/31 11:50:18;;;;;;;;;;;5.80;48.50;;;;;;5012326;28;20167;-76
2022/01/31 11:53:03;;;;;;;;;;;5.70;48.60;;;;;;5012325;28;20286;-76
2022/01/31 11:55:33;;;;;;;;;;;5.70;48.70;;;;;;4995864;28;19918;-79
2022/01/31 11:57:59;;;;;;;;;;;5.60;48.70;;;;;;5012891;28;19968;-80
2022/01/31 12:00:39;;;;;;;;;;;5.60;48.40;;;;;;5027943;28;19927;-80
2022/01/31 12:03:24;;;;;;;;;;;5.50;48.90;;;;;;5011874;28;19921;-76
2022/01/31 12:05:50;;;;;;;;;;;5.50;49.20;;;;;;5028683;28;20251;-76
2022/01/31 12:08:19;;;;;;;;;;;5.40;48.70;;;;;;5026921;28;19921;-79
2022/01/31 12:11:07;;;;;;;;;;;5.40;49.20;;;;;;5014504;28;19935;-76
2022/01/31 12:13:56;;;;;;;;;;;5.40;49.20;;;;;;5019860;28;19921;-76
2022/01/31 12:22:52;;;;;;;;;;;5.30;49.20;;;;;;5012190;28;19921;-76
2022/01/31 12:25:41;;;;;;;;;;;5.30;49.30;;;;;;4999075;28;19925;-76
2022/01/31 12:28:48;;;;;;;;;;;5.30;49.30;;;;;;5004671;28;19921;-76
2022/01/31 12:31:51;;;;;;;;;;;5.30;49.30;;;;;;5008710;28;19921;-81
2022/01/31 12:34:17;;;;;;;;;;;5.30;49.40;;;;;;4999979;28;19921;-80
2022/01/31 12:36:42;;;;;;;;;;;5.30;49.40;;;;;;5012289;28;19943;-77
2022/01/31 12:45:36;;;;;;;;;;;5.20;49.80;;;;;;4999902;28;19929;-80
2022/01/31 12:48:24;;;;;;;;;;;5.10;50.60;;;;;;4999788;28;19964;-77
2022/01/31 12:50:58;;;;;;;;;;;5.00;51.10;;;;;;4998399;28;19925;-81
2022/01/31 12:53:41;;;;;;;;;;;4.90;51.20;;;;;;4999726;28;19921;-79
2022/01/31 12:56:14;;;;;;;;;;;4.90;51.50;;;;;;5011192;28;19928;-80
2022/01/31 12:58:49;;;;;;;;;;;4.80;51.50;;;;;;5003016;28;20000;-80
2022/01/31 13:01:17;;;;;;;;;;;4.80;51.70;;;;;;4999101;28;19925;-80
2022/01/31 13:04:23;;;;;;;;;;;4.80;51.60;;;;;;5013599;28;19921;-76
2022/01/31 13:07:09;;;;;;;;;;;4.80;51.50;;;;;;5014948;28;20032;-80
2022/01/31 13:09:54;;;;;;;;;;;4.80;51.50;;;;;;4999759;28;20587;-80
2022/01/31 13:12:23;;;;;;;;;;;4.80;51.40;;;;;;4998055;28;20221;-76
2022/01/31 13:14:51;;;;;;;;;;;4.80;51.40;;;;;;4988864;28;20117;-76
2022/01/31 13:17:19;;;;;;;;;;;4.80;51.70;;;;;;5015463;28;19921;-76
2022/01/31 13:20:05;;;;;;;;;;;4.80;51.70;;;;;;5008317;28;20366;-80
2022/01/31 13:22:49;;;;;;;;;;;4.80;52.20;;;;;;4978171;28;19918;-76
2022/01/31 13:25:16;;;;;;;;;;;4.70;52.40;;;;;;4995726;28;20016;-80
2022/01/31 13:27:44;;;;;;;;;;;4.70;52.60;;;;;;5005488;28;19948;-76
2022/01/31 13:30:21;;;;;;;;;;;4.80;52.30;;;;;;4999820;28;20491;-76
2022/01/31 13:32:47;;;;;;;;;;;4.80;52.20;;;;;;4994692;28;20294;-76
2022/01/31 13:35:33;;;;;;;;;;;4.80;52.30;;;;;;5008045;28;20711;-76
2022/01/31 13:38:03;;;;;;;;;;;4.90;52.40;;;;;;5012191;28;20168;-79
2022/01/31 13:40:50;;;;;;;;;;;4.80;52.40;;;;;;4996122;28;19924;-78
2022/01/31 13:43:36;;;;;;;;;;;4.80;52.50;;;;;;4995480;28;19917;-80
2022/01/31 13:46:28;;;;;;;;;;;4.80;52.50;;;;;;4996807;28;19925;-76
2022/01/31 13:51:45;;;;;;;;;;;4.80;52.70;;;;;;4996049;28;20358;-77
2022/01/31 13:54:31;;;;;;;;;;;4.80;52.70;;;;;;4980259;28;19921;-76
2022/01/31 13:56:58;;;;;;;;;;;4.80;52.80;;;;;;4995844;28;19929;-76
2022/01/31 13:59:27;;;;;;;;;;;4.80;52.80;;;;;;4994644;28;19922;-81
2022/01/31 14:02:13;;;;;;;;;;;4.80;52.80;;;;;;5007345;28;19922;-81
2022/01/31 14:04:43;;;;;;;;;;;4.80;53.10;;;;;;5010935;28;20331;-77
2022/01/31 14:07:29;;;;;;;;;;;4.70;52.80;;;;;;4996108;28;19917;-76
2022/01/31 14:09:56;;;;;;;;;;;4.70;53.30;;;;;;4994016;28;19930;-80
2022/01/31 14:12:40;;;;;;;;;;;4.70;52.90;;;;;;5012656;28;20355;-81
2022/01/31 14:15:07;;;;;;;;;;;4.70;53.20;;;;;;4995783;28;19975;-76
2022/01/31 14:17:33;;;;;;;;;;;4.70;53.50;;;;;;4995401;28;19922;-80
2022/01/31 14:20:00;;;;;;;;;;;4.70;53.70;;;;;;4977510;28;20298;-78
2022/01/31 14:22:27;;;;;;;;;;;4.70;53.50;;;;;;4994784;28;19927;-80
2022/01/31 14:24:53;;;;;;;;;;;4.70;53.60;;;;;;4979260;28;19922;-77
2022/01/31 14:27:20;;;;;;;;;;;4.70;53.80;;;;;;5009410;28;19933;-80
2022/01/31 14:29:56;;;;;;;;;;;4.70;53.70;;;;;;5007829;28;19921;-77
2022/01/31 14:32:22;;;;;;;;;;;4.70;53.70;;;;;;5002572;28;19917;-77
2022/01/31 14:34:56;;;;;;;;;;;4.70;53.80;;;;;;5007863;28;20036;-80
2022/01/31 14:37:23;;;;;;;;;;;4.80;53.70;;;;;;4982002;28;19914;-80
2022/01/31 14:42:48;;;;;;;;;;;4.60;54.30;;;;;;4994730;28;19945;-81
2022/01/31 14:48:06;;;;;;;;;;;4.60;54.40;;;;;;4994979;28;20056;-78
2022/01/31 14:50:39;;;;;;;;;;;4.60;54.30;;;;;;5001989;28;20287;-81
2022/01/31 14:53:23;;;;;;;;;;;4.50;54.40;;;;;;4993614;28;19921;-79
2022/01/31 14:55:50;;;;;;;;;;;4.50;54.60;;;;;;5004924;28;20331;-79
2022/01/31 14:58:17;;;;;;;;;;;4.40;54.80;;;;;;4977854;28;19917;-81
2022/01/31 15:00:44;;;;;;;;;;;4.40;55.20;;;;;;4994656;28;19922;-78
2022/01/31 15:03:11;;;;;;;;;;;4.30;55.40;;;;;;5003875;28;20290;-79
2022/01/31 15:05:37;;;;;;;;;;;4.30;55.50;;;;;;5008930;28;19963;-79
2022/01/31 15:08:03;;;;;;;;;;;4.20;55.10;;;;;;5011489;28;19921;-80
2022/01/31 15:10:31;;;;;;;;;;;4.30;55.50;;;;;;5007394;28;20112;-80
2022/01/31 15:13:00;;;;;;;;;;;4.30;55.50;;;;;;4993783;28;19990;-80
2022/01/31 15:15:26;;;;;;;;;;;4.40;55.60;;;;;;4993110;28;19926;-77
2022/01/31 15:17:53;;;;;;;;;;;4.30;56.00;;;;;;5008029;28;19968;-77
2022/01/31 15:20:20;;;;;;;;;;;4.20;56.00;;;;;;5008748;28;20008;-79
2022/01/31 15:22:54;;;;;;;;;;;4.10;56.30;;;;;;4995294;28;19922;-78
2022/01/31 15:25:20;;;;;;;;;;;4.10;57.20;;;;;;5010363;28;19924;-77
2022/01/31 15:27:46;;;;;;;;;;;3.90;58.00;;;;;;4993133;28;19925;-77
2022/01/31 15:30:14;;;;;;;;;;;3.80;58.50;;;;;;5006057;28;19944;-79
2022/01/31 15:32:40;;;;;;;;;;;3.80;58.20;;;;;;5005770;28;19921;-77